Terminal Aerodrome Forecast
Issued by NWS

Home | Current Version | Previous Version | Text Only | Print | Product List | Glossary Off
Versions: 1 2 3 4 5 6 7 8 9 10 11 12 13 14 15 16 17 18 19 20 21 22 23 24 25 26 27 28 29 30 31 32 33 34 35 36 37 38

205
FTUS43 KGRB 211703 AAB
TAFRHI
TAF AMD
KRHI 211703Z 2117/2212 31014G24KT P6SM -SHSN SCT022 BKN035
     FM220000 31009G15KT P6SM BKN035
     FM220200 30007KT P6SM BKN021
     FM220800 29005KT P6SM SCT022=

USA.gov is the U.S. government's official web portal to all federal, state and local government web resources and services.